createdAt,value
2018-03-24T00:02:06.270Z,6.63
2018-03-24T00:04:34.498Z,6.40
2018-03-24T00:07:02.836Z,5.80
2018-03-24T00:09:31.893Z,5.93
2018-03-24T00:12:00.118Z,6.67
2018-03-24T00:14:28.394Z,10.80
2018-03-24T00:16:56.806Z,5.80
2018-03-24T00:19:25.071Z,5.80
2018-03-24T00:21:53.302Z,7.33
2018-03-24T00:24:22.312Z,6.40
2018-03-24T00:26:50.546Z,10.70
2018-03-24T00:29:18.792Z,11.50
2018-03-24T00:31:47.998Z,7.17
2018-03-24T00:34:16.240Z,7.47
2018-03-24T00:36:45.272Z,8.60
2018-03-24T00:39:13.661Z,8.30
2018-03-24T00:41:41.884Z,9.23
2018-03-24T00:44:10.127Z,9.60
2018-03-24T00:46:38.354Z,9.07
2018-03-24T00:49:06.631Z,7.33
2018-03-24T00:51:34.947Z,7.80
2018-03-24T00:54:03.224Z,8.23
2018-03-24T00:56:32.285Z,7.03
2018-03-24T00:59:00.960Z,8.83
2018-03-24T01:01:29.182Z,7.20
2018-03-24T01:03:57.430Z,8.30
2018-03-24T01:06:25.713Z,7.77
2018-03-24T01:08:53.966Z,7.87
2018-03-24T01:11:22.205Z,9.40
2018-03-24T01:13:50.565Z,8.83
2018-03-24T01:16:18.862Z,8.33
2018-03-24T01:18:47.061Z,9.13
2018-03-24T01:21:16.237Z,10.53
2018-03-24T01:23:44.516Z,11.30
2018-03-24T01:26:12.789Z,8.33
2018-03-24T01:28:41.080Z,9.30
2018-03-24T01:31:09.298Z,9.67
2018-03-24T01:33:37.567Z,11.60
2018-03-24T01:36:05.894Z,13.80
2018-03-24T01:38:34.103Z,11.60
2018-03-24T01:41:02.359Z,11.93
2018-03-24T01:43:31.359Z,9.17
2018-03-24T01:45:59.594Z,10.33
2018-03-24T01:48:27.951Z,8.50
2018-03-24T01:50:56.209Z,8.93
2018-03-24T01:53:31.902Z,9.53
2018-03-24T01:56:00.166Z,13.37
2018-03-24T01:58:29.603Z,10.13
2018-03-24T02:00:57.849Z,11.43
2018-03-24T02:03:26.131Z,14.03
2018-03-24T02:05:54.368Z,11.33
2018-03-24T02:08:22.655Z,11.77
2018-03-24T02:10:51.309Z,10.70
2018-03-24T02:13:19.663Z,11.90
2018-03-24T02:15:47.890Z,11.43
2018-03-24T02:18:16.122Z,12.27
2018-03-24T02:20:44.373Z,13.20
2018-03-24T02:23:13.077Z,11.50
2018-03-24T02:25:41.362Z,9.50
2018-03-24T02:28:09.585Z,13.63
2018-03-24T02:30:37.818Z,12.43
2018-03-24T02:33:06.079Z,13.03
2018-03-24T02:35:34.345Z,13.63
2018-03-24T02:38:02.604Z,14.93
2018-03-24T02:40:32.711Z,13.83
2018-03-24T02:43:01.664Z,17.30
2018-03-24T02:45:29.925Z,13.50
2018-03-24T02:47:58.323Z,17.63
2018-03-24T02:50:26.548Z,14.57
2018-03-24T02:52:54.901Z,14.23
2018-03-24T02:55:23.151Z,16.93
2018-03-24T02:57:52.410Z,14.73
2018-03-24T03:00:21.473Z,16.40
2018-03-24T03:02:49.708Z,15.90
2018-03-24T03:05:18.819Z,12.00
2018-03-24T03:07:47.093Z,16.80
2018-03-24T03:10:15.329Z,17.20
2018-03-24T03:12:43.580Z,14.87
2018-03-24T03:15:12.049Z,16.53
2018-03-24T03:17:40.561Z,17.90
2018-03-24T03:20:10.479Z,11.40
2018-03-24T03:22:38.982Z,13.93
2018-03-24T03:25:07.224Z,11.97
2018-03-24T03:27:35.470Z,16.33
2018-03-24T03:30:03.749Z,13.17
2018-03-24T03:32:32.200Z,11.43
2018-03-24T03:35:01.332Z,14.07
2018-03-24T03:37:29.570Z,16.30
2018-03-24T03:39:57.898Z,13.90
2018-03-24T03:42:26.234Z,11.83
2018-03-24T03:44:54.550Z,12.30
2018-03-24T03:47:23.793Z,10.97
2018-03-24T03:49:52.062Z,11.83
2018-03-24T03:52:20.317Z,14.57
2018-03-24T03:54:49.673Z,13.60
2018-03-24T03:57:17.922Z,10.13
2018-03-24T03:59:46.146Z,11.80
2018-03-24T04:02:14.518Z,10.93
2018-03-24T04:04:42.757Z,11.50
2018-03-24T04:07:11.010Z,15.90
2018-03-24T04:09:39.459Z,13.07
2018-03-24T04:12:07.693Z,14.73
2018-03-24T04:14:36.713Z,12.93
2018-03-24T04:17:05.065Z,11.57
2018-03-24T04:19:34.116Z,18.00
2018-03-24T04:22:02.381Z,11.70
2018-03-24T04:24:30.613Z,15.30
2018-03-24T04:26:58.889Z,12.97
2018-03-24T04:29:27.886Z,15.20
2018-03-24T04:31:57.042Z,14.20
2018-03-24T04:34:26.166Z,14.00
2018-03-24T04:36:55.020Z,14.63
2018-03-24T04:39:23.266Z,11.60
2018-03-24T04:41:51.502Z,14.10
2018-03-24T04:44:19.762Z,14.10
2018-03-24T04:46:48.022Z,13.20
2018-03-24T04:49:16.282Z,13.50
2018-03-24T04:51:44.513Z,16.10
2018-03-24T04:54:12.780Z,13.73
2018-03-24T04:56:41.030Z,17.03
2018-03-24T04:59:09.305Z,14.73
2018-03-24T05:01:38.357Z,13.00
2018-03-24T05:04:06.607Z,12.00
2018-03-24T05:06:35.677Z,13.37
2018-03-24T05:09:08.535Z,13.57
2018-03-24T05:11:36.793Z,13.57
2018-03-24T05:14:05.994Z,13.80
2018-03-24T05:16:34.251Z,13.87
2018-03-24T05:19:03.282Z,15.00
2018-03-24T05:21:31.521Z,14.47
2018-03-24T05:24:00.523Z,10.10
2018-03-24T05:26:28.795Z,16.63
2018-03-24T05:28:57.045Z,14.77
2018-03-24T05:31:25.302Z,16.52
2018-03-24T05:33:53.583Z,11.93
2018-03-24T05:36:21.842Z,13.30
2018-03-24T05:38:50.093Z,12.68
2018-03-24T05:41:18.330Z,13.50
2018-03-24T05:43:46.601Z,13.60
2018-03-24T05:46:14.930Z,13.73
2018-03-24T05:48:43.211Z,11.13
2018-03-24T05:51:11.525Z,13.63
2018-03-24T05:53:40.347Z,11.97
2018-03-24T05:56:09.356Z,16.10
2018-03-24T05:58:37.631Z,13.77
2018-03-24T06:01:05.877Z,12.97
2018-03-24T06:03:34.166Z,13.87
2018-03-24T06:06:02.578Z,14.40
2018-03-24T06:08:30.869Z,14.50
2018-03-24T06:10:59.110Z,12.77
2018-03-24T06:13:27.372Z,14.40
2018-03-24T06:15:56.574Z,15.70
2018-03-24T06:18:24.904Z,16.40
2018-03-24T06:20:53.150Z,16.47
2018-03-24T06:23:21.445Z,18.93
2018-03-24T06:25:50.090Z,15.07
2018-03-24T06:28:18.438Z,15.27
2018-03-24T06:33:45.673Z,19.67
2018-03-24T06:36:15.149Z,16.43
2018-03-24T06:38:44.133Z,19.70
2018-03-24T06:41:12.698Z,14.70
2018-03-24T06:43:40.956Z,13.70
2018-03-24T06:46:09.246Z,17.07
2018-03-24T06:48:37.476Z,14.93
2018-03-24T06:51:05.769Z,16.03
2018-03-24T06:53:34.039Z,18.27
2018-03-24T06:56:02.397Z,14.00
2018-03-24T06:58:30.638Z,14.50
2018-03-24T07:00:58.923Z,14.53
2018-03-24T07:03:27.163Z,16.43
2018-03-24T07:05:55.461Z,16.43
2018-03-24T07:08:24.222Z,15.07
2018-03-24T07:10:53.038Z,17.83
2018-03-24T07:13:21.309Z,17.57
2018-03-24T07:15:49.663Z,15.63
2018-03-24T07:18:18.754Z,15.43
2018-03-24T07:20:48.595Z,18.23
2018-03-24T07:23:16.832Z,21.70
2018-03-24T07:25:45.168Z,17.80
2018-03-24T07:28:13.388Z,17.97
2018-03-24T07:30:44.562Z,17.93
2018-03-24T07:33:12.809Z,17.73
2018-03-24T07:35:42.036Z,18.13
2018-03-24T07:38:10.317Z,16.70
2018-03-24T07:40:39.388Z,19.37
2018-03-24T07:43:07.675Z,22.73
2018-03-24T07:45:37.006Z,19.97
2018-03-24T07:48:05.224Z,15.83
2018-03-24T07:50:33.559Z,18.27
2018-03-24T07:53:01.839Z,20.20
2018-03-24T07:55:30.326Z,18.70
2018-03-24T07:57:58.606Z,16.30
2018-03-24T08:00:26.959Z,20.77
2018-03-24T08:02:55.254Z,20.93
2018-03-24T08:05:23.536Z,21.67
2018-03-24T08:07:51.821Z,22.10
2018-03-24T08:10:20.442Z,17.30
2018-03-24T08:12:48.681Z,20.83
2018-03-24T08:15:17.750Z,20.93
2018-03-24T08:17:46.025Z,18.77
2018-03-24T08:20:14.275Z,18.67
2018-03-24T08:22:42.515Z,17.50
2018-03-24T08:25:10.842Z,19.07
2018-03-24T08:27:39.189Z,17.00
2018-03-24T08:30:07.415Z,18.13
2018-03-24T08:32:35.726Z,16.20
2018-03-24T08:35:03.984Z,20.53
2018-03-24T08:37:32.990Z,18.33
2018-03-24T08:40:01.293Z,16.60
2018-03-24T08:42:29.528Z,16.87
2018-03-24T08:44:57.774Z,15.00
2018-03-24T08:47:26.047Z,16.43
2018-03-24T08:49:55.841Z,15.90
2018-03-24T08:52:24.203Z,16.13
2018-03-24T08:54:52.514Z,16.87
2018-03-24T08:57:20.791Z,20.13
2018-03-24T08:59:49.092Z,18.37
2018-03-24T09:02:18.320Z,13.40
2018-03-24T09:04:46.769Z,17.60
2018-03-24T09:07:15.081Z,16.23
2018-03-24T09:09:44.093Z,12.57
2018-03-24T09:12:12.393Z,15.03
2018-03-24T09:14:40.746Z,12.27
2018-03-24T09:17:08.975Z,16.43
2018-03-24T09:19:37.232Z,13.67
2018-03-24T09:22:05.519Z,18.50
2018-03-24T09:24:33.802Z,13.80
2018-03-24T09:27:02.057Z,13.50
2018-03-24T09:29:31.173Z,14.10
2018-03-24T09:31:59.474Z,12.87
2018-03-24T09:34:27.745Z,14.97
2018-03-24T09:36:55.990Z,12.87
2018-03-24T09:39:24.318Z,14.50
2018-03-24T09:41:53.338Z,11.97
2018-03-24T09:44:21.646Z,14.47
2018-03-24T09:46:49.898Z,12.73
2018-03-24T09:49:18.130Z,14.03
2018-03-24T09:51:46.415Z,14.60
2018-03-24T09:54:14.814Z,12.07
2018-03-24T09:56:44.871Z,13.60
2018-03-24T09:59:13.089Z,14.77
2018-03-24T10:01:41.373Z,13.30
2018-03-24T10:04:09.622Z,12.87
2018-03-24T10:06:38.650Z,11.07
2018-03-24T10:09:07.278Z,13.20
2018-03-24T10:11:35.560Z,10.27
2018-03-24T10:14:04.651Z,10.30
2018-03-24T10:16:33.806Z,10.70
2018-03-24T10:19:02.061Z,11.93
2018-03-24T10:24:39.578Z,11.20
2018-03-24T10:27:07.798Z,10.40
2018-03-24T10:29:37.569Z,8.30
2018-03-24T10:32:06.263Z,11.90
2018-03-24T10:34:34.526Z,8.60
2018-03-24T10:37:02.793Z,6.87
2018-03-24T10:39:32.061Z,9.73
2018-03-24T10:42:00.279Z,8.83
2018-03-24T10:44:28.550Z,9.70
2018-03-24T10:46:56.842Z,8.20
2018-03-24T10:49:25.142Z,8.67
2018-03-24T10:51:53.369Z,6.93
2018-03-24T10:54:21.649Z,8.50
2018-03-24T10:56:49.896Z,7.73
2018-03-24T10:59:18.127Z,6.60
2018-03-24T11:01:46.408Z,5.77
2018-03-24T11:04:14.661Z,6.73
2018-03-24T11:06:42.944Z,10.10
2018-03-24T11:09:11.965Z,5.93
2018-03-24T11:11:40.706Z,13.50
2018-03-24T11:14:09.825Z,8.87
2018-03-24T11:16:38.535Z,6.10
2018-03-24T11:19:06.810Z,8.87
2018-03-24T11:21:35.112Z,9.23
2018-03-24T11:24:05.056Z,6.77
2018-03-24T11:26:33.331Z,7.03
2018-03-24T11:29:01.726Z,7.07
2018-03-24T11:31:30.717Z,7.13
2018-03-24T11:33:58.972Z,6.93
2018-03-24T11:36:27.234Z,6.17
2018-03-24T11:38:55.515Z,6.37
2018-03-24T11:41:24.606Z,5.60
2018-03-24T11:43:52.840Z,6.00
2018-03-24T11:46:21.103Z,5.70
2018-03-24T11:48:49.335Z,5.77
2018-03-24T11:51:17.582Z,6.63
2018-03-24T11:53:45.854Z,5.43
2018-03-24T11:56:14.150Z,6.67
2018-03-24T11:58:42.409Z,9.97
2018-03-24T12:01:10.684Z,5.67
2018-03-24T12:03:39.196Z,5.30
2018-03-24T12:06:08.063Z,6.77
2018-03-24T12:08:38.002Z,4.77
2018-03-24T12:11:06.287Z,5.97
2018-03-24T12:13:34.577Z,6.30
2018-03-24T12:16:03.784Z,6.00
2018-03-24T12:18:32.053Z,5.90
2018-03-24T12:21:00.329Z,6.07
2018-03-24T12:23:29.104Z,5.07
2018-03-24T12:25:57.456Z,5.93
2018-03-24T12:28:26.257Z,4.70
2018-03-24T12:30:54.477Z,5.27
2018-03-24T12:33:23.052Z,5.83
2018-03-24T12:35:51.290Z,7.97
2018-03-24T12:38:19.771Z,6.50
2018-03-24T12:40:48.006Z,6.20
2018-03-24T12:43:16.526Z,6.03
2018-03-24T12:45:44.778Z,5.37
2018-03-24T12:48:13.101Z,6.10
2018-03-24T12:50:41.317Z,5.30
2018-03-24T12:53:09.558Z,5.27
2018-03-24T12:55:38.758Z,5.20
2018-03-24T12:58:07.072Z,6.63
2018-03-24T13:00:35.304Z,4.97
2018-03-24T13:03:04.513Z,5.70
2018-03-24T13:05:32.960Z,7.63
2018-03-24T13:08:01.197Z,4.90
2018-03-24T13:10:29.442Z,7.77
2018-03-24T13:12:57.704Z,4.80
2018-03-24T13:15:25.968Z,6.77
2018-03-24T13:17:54.350Z,5.30
2018-03-24T13:20:24.201Z,5.23
2018-03-24T13:22:53.174Z,5.37
2018-03-24T13:25:21.606Z,5.40
2018-03-24T13:27:49.833Z,5.50
2018-03-24T13:30:18.874Z,5.10
2018-03-24T13:32:47.107Z,5.57
2018-03-24T13:35:15.520Z,8.50
2018-03-24T13:37:43.786Z,5.17
2018-03-24T13:40:12.052Z,6.47
2018-03-24T13:42:40.393Z,5.37
2018-03-24T13:45:08.759Z,4.60
2018-03-24T13:47:37.024Z,4.87
2018-03-24T13:50:05.302Z,5.73
2018-03-24T13:52:33.596Z,5.83
2018-03-24T13:55:01.817Z,5.33
2018-03-24T13:57:30.083Z,4.83
2018-03-24T13:59:58.317Z,4.50
2018-03-24T14:02:26.804Z,6.07
2018-03-24T14:04:55.826Z,6.13
2018-03-24T14:07:24.826Z,5.63
2018-03-24T14:09:53.104Z,4.07
2018-03-24T14:12:21.339Z,6.97
2018-03-24T14:14:51.588Z,5.37
2018-03-24T14:17:22.070Z,4.80
2018-03-24T14:19:51.939Z,5.43
2018-03-24T14:22:20.209Z,4.83
2018-03-24T14:24:48.479Z,6.37
2018-03-24T14:27:16.789Z,4.60
2018-03-24T14:29:45.050Z,6.00
2018-03-24T14:32:13.294Z,6.80
2018-03-24T14:34:41.553Z,5.93
2018-03-24T14:37:10.539Z,7.47
2018-03-24T14:39:38.812Z,5.30
2018-03-24T14:42:07.036Z,6.10
2018-03-24T14:44:35.301Z,9.27
2018-03-24T14:47:04.748Z,6.47
2018-03-24T14:49:33.778Z,5.87
2018-03-24T14:52:02.021Z,5.80
2018-03-24T14:54:30.339Z,6.10
2018-03-24T14:56:58.551Z,4.97
2018-03-24T14:59:26.912Z,6.60
2018-03-24T15:01:55.162Z,7.80
2018-03-24T15:04:23.404Z,5.30
2018-03-24T15:06:51.664Z,6.00
2018-03-24T15:09:19.908Z,6.70
2018-03-24T15:11:48.913Z,7.37
2018-03-24T15:14:17.182Z,6.13
2018-03-24T15:16:45.434Z,4.60
2018-03-24T15:19:14.469Z,5.63
2018-03-24T15:21:43.473Z,7.30
2018-03-24T15:24:12.717Z,7.33
2018-03-24T15:26:41.765Z,4.73
2018-03-24T15:29:21.737Z,9.67
2018-03-24T15:32:01.874Z,8.77
2018-03-24T15:34:42.061Z,6.43
2018-03-24T15:37:10.322Z,5.43
2018-03-24T15:39:38.594Z,5.63
2018-03-24T15:42:06.853Z,5.47
2018-03-24T15:44:35.386Z,6.90
2018-03-24T15:47:03.613Z,5.90
2018-03-24T15:49:31.866Z,23.40
2018-03-24T15:52:01.047Z,8.97
2018-03-24T15:54:30.084Z,6.90
2018-03-24T15:56:58.314Z,6.60
2018-03-24T15:59:26.791Z,7.13
2018-03-24T16:01:55.154Z,6.57
2018-03-24T16:04:23.357Z,5.60
2018-03-24T16:06:51.631Z,5.43
2018-03-24T16:09:20.349Z,7.10
2018-03-24T16:11:48.618Z,6.13
2018-03-24T16:14:16.877Z,7.07
2018-03-24T16:16:45.184Z,6.73
2018-03-24T16:19:13.593Z,6.93
2018-03-24T16:21:42.197Z,8.67
2018-03-24T16:24:11.286Z,8.13
2018-03-24T16:26:39.522Z,15.00
2018-03-24T16:29:07.780Z,11.07
2018-03-24T16:31:36.638Z,6.60
2018-03-24T16:34:04.945Z,8.00
2018-03-24T16:36:33.488Z,5.77
2018-03-24T16:39:01.716Z,6.63
2018-03-24T16:41:29.986Z,10.07
2018-03-24T16:43:58.246Z,6.40
2018-03-24T16:46:26.499Z,6.07
2018-03-24T16:48:54.751Z,6.13
2018-03-24T16:51:22.976Z,6.00
2018-03-24T16:53:51.396Z,5.90
2018-03-24T16:56:19.684Z,7.20
2018-03-24T16:58:47.934Z,6.70
2018-03-24T17:01:16.200Z,6.77
2018-03-24T17:03:44.434Z,5.97
2018-03-24T17:06:12.708Z,6.30
2018-03-24T17:08:41.035Z,6.17
2018-03-24T17:11:09.306Z,6.73
2018-03-24T17:13:37.614Z,6.33
2018-03-24T17:16:06.829Z,6.83
2018-03-24T17:18:36.155Z,7.23
2018-03-24T17:21:05.191Z,7.27
2018-03-24T17:23:33.522Z,6.17
2018-03-24T17:26:02.569Z,7.63
2018-03-24T17:28:30.815Z,7.70
2018-03-24T17:30:59.285Z,6.53
2018-03-24T17:33:27.688Z,6.70
2018-03-24T17:35:56.022Z,6.83
2018-03-24T17:38:25.063Z,5.83
2018-03-24T17:40:54.083Z,9.73
2018-03-24T17:43:23.182Z,10.43
2018-03-24T17:45:51.445Z,12.13
2018-03-24T17:48:19.701Z,11.77
2018-03-24T17:50:47.964Z,10.23
2018-03-24T17:53:16.203Z,11.23
2018-03-24T17:55:44.735Z,14.97
2018-03-24T17:58:13.005Z,11.77
2018-03-24T18:00:45.559Z,11.47
2018-03-24T18:03:13.826Z,10.50
2018-03-24T18:05:42.381Z,13.10
2018-03-24T18:08:10.692Z,15.43
2018-03-24T18:10:38.997Z,14.70
2018-03-24T18:13:07.243Z,9.13
2018-03-24T18:15:36.251Z,8.33
2018-03-24T18:18:04.557Z,10.20
2018-03-24T18:20:32.960Z,7.40
2018-03-24T18:23:01.458Z,12.60
2018-03-24T18:25:30.639Z,7.50
2018-03-24T18:27:58.854Z,6.50
2018-03-24T18:30:27.111Z,8.70
2018-03-24T18:32:55.356Z,15.20
2018-03-24T18:35:23.635Z,20.47
2018-03-24T18:37:51.916Z,24.33
2018-03-24T18:40:20.322Z,17.80
2018-03-24T18:42:48.902Z,20.43
2018-03-24T18:45:18.542Z,15.27
2018-03-24T18:47:46.814Z,10.60
2018-03-24T18:50:15.085Z,9.87
2018-03-24T18:52:43.348Z,13.30
2018-03-24T18:55:11.710Z,12.23
2018-03-24T18:57:39.921Z,14.30
2018-03-24T19:00:08.188Z,7.70
2018-03-24T19:02:37.184Z,7.47
2018-03-24T19:05:05.440Z,8.77
2018-03-24T19:07:33.741Z,9.93
2018-03-24T19:10:01.958Z,9.00
2018-03-24T19:12:30.396Z,9.83
2018-03-24T19:14:58.752Z,8.93
2018-03-24T19:17:28.619Z,9.17
2018-03-24T19:19:56.884Z,8.37
2018-03-24T19:22:25.131Z,9.50
2018-03-24T19:24:54.195Z,9.40
2018-03-24T19:27:22.422Z,9.50
2018-03-24T19:29:51.043Z,9.93
2018-03-24T19:32:19.746Z,9.30
2018-03-24T19:34:48.185Z,14.60
2018-03-24T19:37:16.407Z,9.97
2018-03-24T19:39:44.901Z,8.47
2018-03-24T19:42:13.672Z,9.40
2018-03-24T19:44:43.138Z,9.07
2018-03-24T19:47:11.862Z,13.30
2018-03-24T19:49:40.187Z,12.33
2018-03-24T19:52:09.258Z,12.20
2018-03-24T19:54:37.923Z,9.90
2018-03-24T19:57:06.424Z,14.27
2018-03-24T19:59:34.882Z,13.70
2018-03-24T20:02:04.387Z,13.93
2018-03-24T20:04:33.282Z,11.53
2018-03-24T20:07:01.548Z,13.03
2018-03-24T20:09:29.829Z,15.23
2018-03-24T20:11:58.118Z,14.10
2018-03-24T20:14:27.231Z,13.43
2018-03-24T20:16:55.490Z,13.17
2018-03-24T20:19:24.065Z,14.00
2018-03-24T20:21:52.660Z,16.80
2018-03-24T20:24:20.920Z,20.97
2018-03-24T20:26:49.615Z,14.13
2018-03-24T20:29:17.888Z,15.70
2018-03-24T20:31:48.006Z,15.07
2018-03-24T20:34:16.694Z,13.60
2018-03-24T20:36:44.974Z,18.63
2018-03-24T20:39:14.114Z,16.73
2018-03-24T20:41:42.555Z,12.17
2018-03-24T20:44:12.050Z,12.70
2018-03-24T20:46:40.361Z,13.60
2018-03-24T20:49:08.887Z,13.30
2018-03-24T20:51:37.496Z,14.00
2018-03-24T20:54:06.813Z,12.63
2018-03-24T20:56:35.071Z,15.47
2018-03-24T20:59:03.344Z,15.40
2018-03-24T21:01:32.525Z,15.80
2018-03-24T21:04:00.820Z,17.50
2018-03-24T21:06:29.054Z,16.53
2018-03-24T21:08:57.398Z,16.23
2018-03-24T21:11:26.444Z,15.63
2018-03-24T21:13:55.673Z,17.67
2018-03-24T21:16:24.067Z,17.83
2018-03-24T21:18:52.356Z,14.80
2018-03-24T21:21:20.900Z,13.50
2018-03-24T21:23:49.838Z,13.97
2018-03-24T21:26:18.186Z,13.87
2018-03-24T21:28:46.669Z,14.20
2018-03-24T21:31:15.037Z,15.33
2018-03-24T21:33:43.368Z,14.67
2018-03-24T21:36:11.694Z,14.47
2018-03-24T21:38:40.137Z,17.53
2018-03-24T21:41:08.424Z,14.63
2018-03-24T21:43:36.829Z,15.70
2018-03-24T21:46:06.056Z,15.00
2018-03-24T21:48:35.041Z,14.20
2018-03-24T21:51:03.422Z,14.10
2018-03-24T21:53:31.733Z,14.50
2018-03-24T21:55:59.975Z,15.60
2018-03-24T21:58:28.251Z,14.03
2018-03-24T22:00:57.257Z,16.73
2018-03-24T22:03:25.613Z,11.80
2018-03-24T22:05:53.846Z,14.10
2018-03-24T22:08:22.153Z,17.40
2018-03-24T22:10:50.383Z,15.70
2018-03-24T22:13:18.806Z,15.87
2018-03-24T22:15:47.217Z,14.40
2018-03-24T22:18:15.473Z,15.70
2018-03-24T22:20:45.445Z,15.90
2018-03-24T22:23:13.689Z,14.27
2018-03-24T22:25:41.962Z,17.87
2018-03-24T22:28:10.219Z,15.07
2018-03-24T22:30:40.071Z,19.33
2018-03-24T22:33:08.318Z,16.20
2018-03-24T22:35:36.608Z,15.90
2018-03-24T22:38:04.846Z,13.20
2018-03-24T22:40:33.949Z,16.30
2018-03-24T22:43:02.874Z,15.30
2018-03-24T22:45:31.100Z,16.90
2018-03-24T22:47:59.387Z,14.10
2018-03-24T22:50:27.619Z,15.53
2018-03-24T22:52:55.870Z,15.07
2018-03-24T22:55:24.142Z,13.90
2018-03-24T22:57:53.310Z,13.93
2018-03-24T23:00:21.527Z,13.53
2018-03-24T23:02:49.805Z,12.37
2018-03-24T23:05:18.033Z,14.53
2018-03-24T23:07:47.235Z,13.80
2018-03-24T23:10:15.482Z,14.10
2018-03-24T23:12:43.789Z,13.60
2018-03-24T23:15:12.031Z,15.40
2018-03-24T23:17:40.310Z,13.43
2018-03-24T23:20:08.646Z,13.27
2018-03-24T23:22:36.898Z,16.00
2018-03-24T23:25:05.277Z,13.57
2018-03-24T23:27:34.437Z,16.63
2018-03-24T23:30:02.750Z,12.03
2018-03-24T23:32:30.972Z,12.90
2018-03-24T23:34:59.984Z,16.00
2018-03-24T23:37:30.033Z,13.67
2018-03-24T23:39:58.328Z,11.47
2018-03-24T23:42:27.304Z,14.87
2018-03-24T23:44:55.542Z,14.43
2018-03-24T23:47:23.807Z,13.97
2018-03-24T23:49:52.039Z,15.03
2018-03-24T23:52:20.283Z,15.00
2018-03-24T23:54:48.584Z,18.47
2018-03-24T23:57:17.041Z,14.37
2018-03-24T23:59:46.050Z,14.63
